Terminal Aerodrome Forecast
Issued by NWS

Home | Current Version | Previous Version | Text Only | Print | Product List | Glossary On
Versions: 1 2 3 4 5 6 7 8 9 10 11 12 13 14
000
FTUS43 KJKL 170520
TAFSME
TAF
KSME 170520Z 1706/1806 21004KT P6SM SCT060
     FM171300 26016G27KT P6SM SKC
     FM180000 30003KT P6SM SCT040 SCT200=

USA.gov is the U.S. government's official web portal to all federal, state and local government web resources and services.